createdAt,value
2022-12-04T00:01:42.136Z,89.25
2022-12-04T00:04:08.327Z,89.18
2022-12-04T00:06:34.411Z,89.36
2022-12-04T00:09:00.510Z,89.35
2022-12-04T00:11:26.610Z,89.33
2022-12-04T00:13:52.701Z,89.13
2022-12-04T00:16:18.850Z,89.22
2022-12-04T00:18:45.008Z,89.23
2022-12-04T00:21:11.113Z,89.09
2022-12-04T00:23:37.223Z,89.34
2022-12-04T00:26:03.364Z,89.26
2022-12-04T00:28:29.468Z,88.96
2022-12-04T00:30:55.572Z,89.25
2022-12-04T00:33:21.713Z,88.98
2022-12-04T00:35:47.805Z,89.20
2022-12-04T00:38:13.909Z,89.17
2022-12-04T00:40:40.015Z,89.12
2022-12-04T00:43:06.115Z,89.13
2022-12-04T00:45:32.240Z,88.91
2022-12-04T00:47:58.374Z,89.07
2022-12-04T00:50:24.472Z,88.99
2022-12-04T00:52:50.576Z,89.24
2022-12-04T00:55:16.690Z,88.97
2022-12-04T00:57:42.788Z,89.20
2022-12-04T01:00:08.873Z,89.20
2022-12-04T01:02:35.016Z,89.25
2022-12-04T01:05:01.165Z,89.07
2022-12-04T01:07:27.304Z,88.98
2022-12-04T01:09:53.745Z,89.18
2022-12-04T01:12:21.051Z,88.88
2022-12-04T01:14:47.345Z,89.12
2022-12-04T01:17:13.459Z,89.27
2022-12-04T01:19:39.551Z,89.04
2022-12-04T01:22:05.657Z,89.10
2022-12-04T01:24:31.774Z,89.21
2022-12-04T01:26:57.857Z,89.20
2022-12-04T01:29:23.942Z,89.25
2022-12-04T01:31:50.095Z,89.19
2022-12-04T01:34:16.193Z,89.13
2022-12-04T01:36:42.293Z,89.12
2022-12-04T01:39:08.412Z,89.22
2022-12-04T01:41:34.498Z,88.96
2022-12-04T01:44:00.589Z,89.12
2022-12-04T01:46:26.759Z,89.18
2022-12-04T01:48:52.901Z,88.97
2022-12-04T01:51:18.986Z,89.08
2022-12-04T01:53:45.115Z,88.89
2022-12-04T01:56:11.202Z,89.18
2022-12-04T01:58:37.300Z,89.08
2022-12-04T02:01:08.225Z,89.12
2022-12-04T02:03:34.749Z,88.72
2022-12-04T02:06:00.849Z,88.75
2022-12-04T02:08:26.965Z,88.76
2022-12-04T02:10:53.056Z,88.77
2022-12-04T02:13:19.161Z,88.80
2022-12-04T02:15:45.263Z,88.88
2022-12-04T02:18:11.359Z,89.17
2022-12-04T02:20:37.443Z,89.18
2022-12-04T02:23:03.591Z,89.08
2022-12-04T02:25:29.698Z,89.11
2022-12-04T02:27:55.820Z,89.12
2022-12-04T02:30:22.039Z,89.36
2022-12-04T02:32:48.252Z,89.22
2022-12-04T02:35:14.342Z,89.23
2022-12-04T02:37:40.436Z,89.13
2022-12-04T02:40:06.531Z,89.20
2022-12-04T02:42:32.655Z,89.19
2022-12-04T02:44:58.785Z,89.05
2022-12-04T02:47:24.872Z,89.39
2022-12-04T02:49:50.968Z,89.20
2022-12-04T02:52:17.076Z,89.55
2022-12-04T02:54:43.164Z,89.26
2022-12-04T02:57:09.252Z,89.50
2022-12-04T02:59:35.362Z,89.69
2022-12-04T03:02:01.566Z,89.82
2022-12-04T03:04:27.701Z,89.55
2022-12-04T03:06:53.814Z,89.67
2022-12-04T03:09:19.909Z,89.69
2022-12-04T03:11:46.008Z,90.03
2022-12-04T03:14:12.174Z,89.99
2022-12-04T03:16:38.308Z,90.04
2022-12-04T03:19:04.401Z,89.67
2022-12-04T03:21:30.511Z,89.91
2022-12-04T03:23:56.617Z,90.00
2022-12-04T03:26:22.738Z,90.05
2022-12-04T03:28:48.844Z,89.75
2022-12-04T03:31:14.977Z,90.09
2022-12-04T03:33:41.157Z,89.99
2022-12-04T03:36:07.336Z,90.19
2022-12-04T03:38:33.411Z,89.89
2022-12-04T03:40:59.486Z,90.33
2022-12-04T03:43:25.605Z,89.95
2022-12-04T03:45:51.771Z,90.17
2022-12-04T03:48:22.644Z,90.39
2022-12-04T03:50:49.300Z,90.53
2022-12-04T03:53:15.374Z,90.56
2022-12-04T03:55:41.459Z,90.45
2022-12-04T03:58:07.577Z,90.38
2022-12-04T04:00:33.663Z,90.34
2022-12-04T04:02:59.793Z,90.53
2022-12-04T04:05:25.938Z,90.65
2022-12-04T04:07:52.050Z,90.44
2022-12-04T04:10:18.169Z,90.39
2022-12-04T04:12:44.258Z,90.47
2022-12-04T04:15:10.369Z,90.61
2022-12-04T04:17:38.778Z,90.80
2022-12-04T04:20:05.502Z,90.41
2022-12-04T04:22:31.605Z,90.75
2022-12-04T04:24:57.701Z,90.48
2022-12-04T04:27:23.804Z,90.73
2022-12-04T04:29:52.611Z,90.73
2022-12-04T04:32:19.003Z,90.55
2022-12-04T04:34:45.110Z,90.35
2022-12-04T04:37:11.209Z,90.41
2022-12-04T04:39:37.287Z,90.52
2022-12-04T04:42:03.397Z,90.59
2022-12-04T04:44:29.488Z,90.37
2022-12-04T04:46:55.665Z,90.40
2022-12-04T04:49:21.809Z,90.36
2022-12-04T04:51:47.893Z,90.23
2022-12-04T04:54:13.986Z,90.31
2022-12-04T04:56:40.097Z,90.31
2022-12-04T04:59:06.186Z,89.96
2022-12-04T05:01:32.329Z,90.09
2022-12-04T05:03:58.482Z,89.84
2022-12-04T05:06:24.568Z,89.74
2022-12-04T05:08:50.660Z,89.90
2022-12-04T05:11:16.764Z,89.88
2022-12-04T05:13:42.869Z,89.53
2022-12-04T05:16:09.018Z,89.62
2022-12-04T05:18:35.143Z,89.31
2022-12-04T05:21:01.241Z,89.39
2022-12-04T05:23:27.341Z,89.59
2022-12-04T05:25:53.456Z,89.27
2022-12-04T05:28:19.545Z,89.07
2022-12-04T05:30:45.633Z,89.28
2022-12-04T05:33:11.753Z,89.40
2022-12-04T05:35:37.849Z,89.30
2022-12-04T05:38:03.953Z,89.20
2022-12-04T05:40:30.061Z,89.19
2022-12-04T05:42:56.146Z,89.18
2022-12-04T05:45:22.250Z,88.84
2022-12-04T05:47:48.354Z,88.83
2022-12-04T05:50:14.446Z,88.74
2022-12-04T05:52:40.533Z,88.79
2022-12-04T05:55:07.181Z,88.95
2022-12-04T05:57:33.270Z,89.13
2022-12-04T05:59:59.365Z,88.67
2022-12-04T06:02:25.567Z,88.86
2022-12-04T06:04:51.695Z,88.82
2022-12-04T06:07:18.045Z,88.92
2022-12-04T06:09:44.229Z,88.82
2022-12-04T06:12:10.323Z,88.88
2022-12-04T06:14:39.806Z,88.69
2022-12-04T06:17:06.212Z,88.59
2022-12-04T06:19:32.309Z,88.64
2022-12-04T06:21:58.412Z,88.43
2022-12-04T06:24:24.819Z,88.47
2022-12-04T06:27:25.746Z,88.80
2022-12-04T06:29:37.012Z,88.64
2022-12-04T06:32:03.143Z,88.35
2022-12-04T06:34:29.313Z,88.29
2022-12-04T06:36:55.414Z,88.34
2022-12-04T06:39:21.505Z,88.43
2022-12-04T06:41:47.731Z,88.29
2022-12-04T06:44:13.942Z,88.26
2022-12-04T06:46:45.095Z,88.11
2022-12-04T06:49:12.744Z,88.11
2022-12-04T06:51:38.865Z,88.56
2022-12-04T06:54:04.968Z,88.25
2022-12-04T06:56:31.068Z,88.46
2022-12-04T06:58:58.022Z,88.13
2022-12-04T07:01:24.207Z,88.19
2022-12-04T07:03:51.795Z,87.98
2022-12-04T07:06:18.112Z,88.00
2022-12-04T07:08:44.210Z,87.85
2022-12-04T07:11:10.294Z,88.21
2022-12-04T07:13:36.418Z,88.05
2022-12-04T07:16:02.559Z,88.02
2022-12-04T07:18:28.674Z,88.03
2022-12-04T07:20:54.793Z,88.13
2022-12-04T07:23:20.880Z,88.10
2022-12-04T07:25:46.959Z,87.79
2022-12-04T07:28:13.127Z,87.71
2022-12-04T07:30:39.215Z,87.98
2022-12-04T07:33:05.299Z,87.85
2022-12-04T07:35:31.412Z,87.65
2022-12-04T07:37:57.507Z,87.79
2022-12-04T07:40:23.604Z,87.64
2022-12-04T07:42:49.712Z,87.49
2022-12-04T07:45:15.813Z,87.70
2022-12-04T07:47:41.909Z,87.90
2022-12-04T07:50:08.030Z,87.49
2022-12-04T07:52:34.111Z,87.52
2022-12-04T07:55:00.197Z,87.87
2022-12-04T07:57:26.294Z,87.67
2022-12-04T07:59:52.482Z,87.52
2022-12-04T08:02:18.705Z,87.72
2022-12-04T08:04:44.873Z,87.41
2022-12-04T08:07:11.040Z,87.40
2022-12-04T08:09:37.128Z,87.39
2022-12-04T08:12:03.244Z,87.59
2022-12-04T08:14:29.340Z,87.55
2022-12-04T08:16:55.528Z,87.35
2022-12-04T08:19:21.726Z,87.38
2022-12-04T08:21:47.823Z,87.49
2022-12-04T08:24:13.924Z,87.22
2022-12-04T08:26:40.044Z,87.22
2022-12-04T08:29:06.134Z,87.52
2022-12-04T08:31:32.288Z,87.21
2022-12-04T08:33:58.473Z,87.24
2022-12-04T08:36:24.572Z,87.10
2022-12-04T08:38:50.666Z,87.10
2022-12-04T08:41:16.780Z,87.38
2022-12-04T08:43:42.862Z,87.41
2022-12-04T08:46:09.008Z,86.96
2022-12-04T08:48:35.143Z,87.26
2022-12-04T08:51:01.234Z,87.29
2022-12-04T08:53:27.331Z,86.98
2022-12-04T08:55:53.477Z,86.89
2022-12-04T08:58:19.574Z,87.06
2022-12-04T09:00:45.683Z,87.00
2022-12-04T09:03:12.321Z,87.01
2022-12-04T09:05:38.408Z,87.08
2022-12-04T09:08:04.615Z,86.96
2022-12-04T09:10:30.850Z,86.85
2022-12-04T09:12:56.955Z,86.85
2022-12-04T09:15:23.052Z,86.92
2022-12-04T09:17:49.185Z,86.91
2022-12-04T09:20:15.275Z,86.77
2022-12-04T09:23:02.691Z,86.63
2022-12-04T09:25:27.474Z,86.73
2022-12-04T09:27:53.576Z,86.48
2022-12-04T09:30:19.678Z,86.59
2022-12-04T09:32:45.783Z,86.48
2022-12-04T09:35:11.870Z,86.05
2022-12-04T09:37:37.973Z,86.24
2022-12-04T09:40:04.075Z,86.17
2022-12-04T09:42:30.158Z,85.92
2022-12-04T09:44:56.250Z,85.80
2022-12-04T09:47:22.346Z,85.65
2022-12-04T09:49:48.439Z,85.89
2022-12-04T09:52:20.340Z,85.82
2022-12-04T09:54:47.904Z,85.67
2022-12-04T09:57:14.000Z,85.51
2022-12-04T09:59:40.100Z,85.66
2022-12-04T10:02:06.278Z,85.73
2022-12-04T10:04:32.386Z,85.48
2022-12-04T10:06:58.469Z,85.52
2022-12-04T10:09:24.592Z,85.58
2022-12-04T10:11:50.676Z,85.49
2022-12-04T10:14:16.769Z,85.50
2022-12-04T10:16:42.864Z,85.26
2022-12-04T10:19:08.967Z,85.30
2022-12-04T10:21:35.069Z,85.34
2022-12-04T10:24:01.197Z,85.05
2022-12-04T10:26:27.299Z,85.25
2022-12-04T10:28:55.394Z,84.97
2022-12-04T10:31:21.841Z,85.09
2022-12-04T10:33:48.005Z,85.21
2022-12-04T10:36:14.121Z,85.07
2022-12-04T10:38:40.291Z,84.94
2022-12-04T10:41:10.249Z,84.85
2022-12-04T10:43:40.699Z,84.91
2022-12-04T10:46:06.835Z,84.76
2022-12-04T10:48:32.981Z,84.72
2022-12-04T10:50:59.064Z,84.53
2022-12-04T10:53:25.195Z,84.49
2022-12-04T10:55:51.291Z,84.38
2022-12-04T10:58:17.393Z,84.40
2022-12-04T11:00:43.533Z,84.45
2022-12-04T11:03:09.707Z,84.25
2022-12-04T11:05:35.882Z,84.60
2022-12-04T11:08:02.120Z,84.40
2022-12-04T11:10:28.241Z,84.59
2022-12-04T11:12:54.327Z,84.58
2022-12-04T11:15:20.467Z,84.34
2022-12-04T11:17:46.568Z,84.38
2022-12-04T11:20:12.662Z,84.51
2022-12-04T11:22:38.778Z,84.77
2022-12-04T11:25:04.872Z,84.78
2022-12-04T11:27:30.959Z,84.71
2022-12-04T11:29:57.436Z,84.66
2022-12-04T11:32:23.786Z,84.87
2022-12-04T11:34:49.880Z,84.65
2022-12-04T11:37:15.985Z,84.98
2022-12-04T11:39:42.103Z,84.77
2022-12-04T11:42:08.211Z,85.11
2022-12-04T11:44:34.378Z,84.86
2022-12-04T11:47:00.517Z,85.18
2022-12-04T11:49:26.761Z,85.12
2022-12-04T11:51:52.875Z,85.33
2022-12-04T11:54:18.950Z,85.28
2022-12-04T11:56:45.027Z,85.16
2022-12-04T11:59:11.135Z,85.46
2022-12-04T12:01:37.272Z,85.29
2022-12-04T12:04:03.418Z,85.50
2022-12-04T12:06:29.576Z,85.45
2022-12-04T12:08:55.673Z,85.52
2022-12-04T12:11:21.751Z,85.44
2022-12-04T12:13:48.197Z,85.43
2022-12-04T12:16:14.326Z,85.53
2022-12-04T12:18:40.452Z,85.60
2022-12-04T12:21:06.583Z,85.68
2022-12-04T12:23:32.680Z,86.03
2022-12-04T12:25:58.822Z,85.91
2022-12-04T12:28:24.932Z,85.85
2022-12-04T12:30:51.052Z,86.10
2022-12-04T12:33:17.144Z,85.93
2022-12-04T12:35:43.244Z,86.00
2022-12-04T12:38:09.339Z,86.40
2022-12-04T12:40:35.420Z,86.56
2022-12-04T12:43:01.625Z,86.47
2022-12-04T12:45:27.756Z,86.40
2022-12-04T12:47:53.873Z,86.65
2022-12-04T12:50:20.021Z,86.54
2022-12-04T12:52:46.198Z,86.49
2022-12-04T12:55:12.313Z,86.63
2022-12-04T12:57:38.443Z,86.71
2022-12-04T13:00:04.569Z,86.71
2022-12-04T13:02:30.699Z,86.82
2022-12-04T13:04:56.868Z,87.08
2022-12-04T13:07:22.970Z,87.22
2022-12-04T13:09:49.081Z,87.21
2022-12-04T13:12:15.182Z,86.99
2022-12-04T13:14:45.943Z,87.24
2022-12-04T13:17:14.844Z,87.28
2022-12-04T13:19:41.190Z,87.40
2022-12-04T13:22:07.373Z,87.23
2022-12-04T13:24:33.521Z,87.36
2022-12-04T13:26:59.668Z,87.43
2022-12-04T13:29:25.768Z,87.33
2022-12-04T13:31:51.931Z,87.31
2022-12-04T13:34:18.130Z,87.27
2022-12-04T13:36:44.224Z,87.33
2022-12-04T13:39:10.436Z,87.55
2022-12-04T13:41:36.555Z,87.54
2022-12-04T13:44:07.061Z,87.37
2022-12-04T13:46:33.437Z,87.24
2022-12-04T13:48:59.898Z,87.37
2022-12-04T13:51:26.003Z,87.36
2022-12-04T13:53:52.095Z,87.47
2022-12-04T13:56:18.211Z,87.59
2022-12-04T13:58:44.306Z,87.52
2022-12-04T14:01:10.464Z,87.57
2022-12-04T14:03:36.617Z,87.71
2022-12-04T14:06:02.754Z,87.64
2022-12-04T14:08:28.886Z,87.68
2022-12-04T14:10:54.996Z,87.57
2022-12-04T14:13:21.079Z,87.77
2022-12-04T14:15:47.164Z,87.81
2022-12-04T14:18:13.354Z,87.70
2022-12-04T14:20:39.457Z,87.77
2022-12-04T14:23:05.548Z,87.72
2022-12-04T14:25:31.661Z,87.83
2022-12-04T14:27:57.740Z,87.95
2022-12-04T14:30:23.870Z,87.96
2022-12-04T14:32:50.000Z,87.89
2022-12-04T14:35:16.104Z,87.83
2022-12-04T14:37:42.198Z,87.89
2022-12-04T14:40:08.320Z,87.77
2022-12-04T14:42:34.401Z,87.66
2022-12-04T14:45:00.492Z,87.95
2022-12-04T14:47:26.611Z,87.99
2022-12-04T14:49:52.704Z,88.11
2022-12-04T14:52:18.789Z,88.05
2022-12-04T14:54:44.964Z,88.20
2022-12-04T14:57:11.056Z,88.08
2022-12-04T14:59:37.166Z,88.03
2022-12-04T15:02:03.266Z,88.19
2022-12-04T15:04:29.456Z,88.28
2022-12-04T15:07:00.134Z,88.11
2022-12-04T15:09:26.612Z,88.25
2022-12-04T15:11:52.686Z,88.10
2022-12-04T15:14:18.807Z,88.22
2022-12-04T15:16:44.917Z,88.07
2022-12-04T15:19:11.009Z,88.17
2022-12-04T15:21:37.100Z,88.38
2022-12-04T15:24:03.694Z,88.52
2022-12-04T15:26:29.779Z,88.46
2022-12-04T15:28:55.869Z,88.17
2022-12-04T15:31:22.050Z,88.43
2022-12-04T15:33:48.179Z,88.31
2022-12-04T15:36:14.255Z,88.38
2022-12-04T15:38:40.372Z,88.55
2022-12-04T15:41:06.466Z,88.66
2022-12-04T15:43:32.555Z,88.46
2022-12-04T15:45:58.699Z,88.66
2022-12-04T15:48:24.814Z,88.79
2022-12-04T15:50:50.897Z,88.48
2022-12-04T15:53:17.010Z,88.86
2022-12-04T15:55:43.145Z,88.88
2022-12-04T15:58:09.233Z,88.90
2022-12-04T16:00:35.337Z,88.72
2022-12-04T16:03:01.431Z,89.05
2022-12-04T16:05:27.535Z,88.80
2022-12-04T16:07:53.685Z,89.04
2022-12-04T16:10:19.817Z,88.96
2022-12-04T16:12:45.923Z,88.94
2022-12-04T16:15:12.037Z,89.02
2022-12-04T16:17:38.121Z,89.11
2022-12-04T16:20:04.203Z,89.20
2022-12-04T16:22:30.300Z,88.93
2022-12-04T16:24:56.724Z,88.91
2022-12-04T16:27:22.921Z,89.01
2022-12-04T16:29:49.042Z,89.14
2022-12-04T16:32:15.132Z,89.01
2022-12-04T16:34:41.220Z,89.06
2022-12-04T16:37:07.319Z,89.10
2022-12-04T16:39:38.239Z,89.29
2022-12-04T16:42:07.223Z,89.32
2022-12-04T16:44:33.342Z,89.26
2022-12-04T16:46:59.511Z,89.11
2022-12-04T16:49:25.664Z,89.35
2022-12-04T16:51:51.772Z,89.38
2022-12-04T16:54:17.874Z,89.29
2022-12-04T16:56:43.977Z,89.44
2022-12-04T16:59:12.466Z,89.33
2022-12-04T17:01:38.797Z,89.48
2022-12-04T17:04:04.977Z,89.36
2022-12-04T17:06:31.117Z,89.52
2022-12-04T17:08:57.209Z,89.45
2022-12-04T17:11:23.305Z,89.44
2022-12-04T17:13:49.417Z,89.43
2022-12-04T17:16:16.846Z,89.16
2022-12-04T17:18:44.607Z,89.52
2022-12-04T17:21:10.714Z,89.58
2022-12-04T17:23:36.812Z,89.35
2022-12-04T17:26:02.914Z,89.52
2022-12-04T17:28:29.499Z,89.52
2022-12-04T17:30:55.592Z,89.57
2022-12-04T17:33:21.696Z,89.60
2022-12-04T17:35:47.805Z,89.54
2022-12-04T17:38:13.901Z,89.62
2022-12-04T17:40:39.996Z,89.44
2022-12-04T17:43:06.097Z,89.56
2022-12-04T17:45:32.195Z,89.49
2022-12-04T17:47:58.291Z,89.66
2022-12-04T17:50:24.386Z,89.68
2022-12-04T17:52:50.503Z,89.71
2022-12-04T17:55:16.613Z,89.50
2022-12-04T17:57:42.730Z,89.71
2022-12-04T18:00:08.810Z,89.80
2022-12-04T18:02:34.929Z,89.61
2022-12-04T18:05:01.134Z,89.68
2022-12-04T18:07:27.219Z,89.61
2022-12-04T18:09:53.305Z,89.73
2022-12-04T18:12:19.416Z,89.79
2022-12-04T18:14:45.518Z,89.80
2022-12-04T18:17:11.643Z,89.82
2022-12-04T18:19:37.753Z,89.60
2022-12-04T18:22:03.836Z,89.68
2022-12-04T18:24:29.932Z,89.69
2022-12-04T18:26:56.058Z,89.76
2022-12-04T18:29:22.153Z,89.67
2022-12-04T18:31:48.306Z,89.80
2022-12-04T18:34:14.483Z,89.94
2022-12-04T18:36:40.565Z,89.73
2022-12-04T18:39:06.655Z,89.81
2022-12-04T18:41:32.751Z,89.76
2022-12-04T18:43:58.856Z,89.54
2022-12-04T18:46:24.983Z,89.81
2022-12-04T18:48:51.169Z,89.65
2022-12-04T18:51:17.275Z,89.90
2022-12-04T18:53:43.380Z,90.08
2022-12-04T18:56:09.482Z,89.73
2022-12-04T18:58:35.576Z,90.16
2022-12-04T19:01:01.696Z,90.30
2022-12-04T19:03:27.854Z,90.40
2022-12-04T19:05:53.968Z,90.19
2022-12-04T19:08:20.162Z,90.13
2022-12-04T19:10:46.328Z,90.24
2022-12-04T19:13:12.413Z,90.40
2022-12-04T19:15:38.516Z,90.49
2022-12-04T19:18:04.629Z,90.57
2022-12-04T19:20:30.723Z,90.65
2022-12-04T19:22:56.807Z,90.78
2022-12-04T19:25:22.912Z,90.86
2022-12-04T19:27:48.991Z,90.91
2022-12-04T19:30:15.081Z,90.83
2022-12-04T19:32:41.182Z,90.71
2022-12-04T19:35:07.277Z,90.91
2022-12-04T19:37:35.851Z,90.97
2022-12-04T19:40:05.811Z,90.96
2022-12-04T19:42:31.916Z,90.81
2022-12-04T19:44:58.028Z,91.11
2022-12-04T19:47:24.163Z,91.10
2022-12-04T19:49:50.263Z,91.21
2022-12-04T19:52:16.359Z,91.20
2022-12-04T19:54:42.455Z,91.26
2022-12-04T19:57:08.554Z,91.36
2022-12-04T19:59:37.646Z,91.42
2022-12-04T20:02:05.778Z,91.44
2022-12-04T20:04:31.954Z,91.51
2022-12-04T20:06:58.057Z,91.44
2022-12-04T20:09:24.456Z,91.43
2022-12-04T20:11:50.548Z,91.63
2022-12-04T20:14:16.638Z,91.52
2022-12-04T20:16:42.840Z,91.34
2022-12-04T20:19:08.992Z,91.66
2022-12-04T20:21:35.082Z,91.64
2022-12-04T20:24:01.197Z,91.66
2022-12-04T20:26:27.301Z,91.72
2022-12-04T20:28:53.383Z,91.64
2022-12-04T20:31:19.598Z,91.53
2022-12-04T20:33:45.736Z,91.85
2022-12-04T20:36:11.831Z,91.75
2022-12-04T20:38:39.455Z,91.84
2022-12-04T20:41:05.552Z,91.82
2022-12-04T20:43:31.651Z,91.79
2022-12-04T20:45:57.792Z,91.90
2022-12-04T20:48:23.888Z,91.69
2022-12-04T20:50:49.996Z,92.11
2022-12-04T20:53:16.133Z,92.07
2022-12-04T20:55:42.210Z,92.14
2022-12-04T20:58:08.310Z,91.80
2022-12-04T21:00:34.433Z,91.75
2022-12-04T21:03:00.618Z,92.01
2022-12-04T21:05:26.730Z,92.09
2022-12-04T21:07:52.911Z,92.05
2022-12-04T21:10:19.060Z,91.87
2022-12-04T21:12:45.164Z,92.16
2022-12-04T21:15:11.335Z,92.15
2022-12-04T21:17:37.436Z,91.93
2022-12-04T21:20:07.617Z,92.27
2022-12-04T21:22:34.230Z,92.10
2022-12-04T21:25:00.327Z,92.09
2022-12-04T21:27:26.431Z,91.94
2022-12-04T21:29:52.550Z,92.30
2022-12-04T21:32:18.644Z,92.32
2022-12-04T21:34:44.744Z,92.10
2022-12-04T21:37:10.966Z,92.37
2022-12-04T21:39:37.045Z,92.37
2022-12-04T21:42:03.146Z,92.33
2022-12-04T21:44:29.300Z,92.43
2022-12-04T21:46:55.531Z,92.46
2022-12-04T21:49:21.697Z,92.50
2022-12-04T21:51:57.180Z,92.33
2022-12-04T21:54:24.009Z,92.26
2022-12-04T21:56:50.118Z,92.36
2022-12-04T21:59:16.206Z,92.56
2022-12-04T22:01:42.396Z,92.41
2022-12-04T22:04:08.555Z,92.52
2022-12-04T22:06:34.651Z,92.43
2022-12-04T22:09:00.735Z,92.62
2022-12-04T22:11:26.854Z,92.70
2022-12-04T22:13:52.954Z,92.61
2022-12-04T22:16:19.101Z,92.81
2022-12-04T22:18:45.263Z,92.80
2022-12-04T22:21:11.339Z,92.55
2022-12-04T22:23:37.466Z,92.73
2022-12-04T22:26:03.584Z,92.79
2022-12-04T22:28:29.670Z,92.68
2022-12-04T22:30:55.827Z,92.94
2022-12-04T22:33:21.947Z,93.02
2022-12-04T22:35:48.039Z,92.75
2022-12-04T22:38:14.144Z,93.08
2022-12-04T22:40:40.284Z,93.12
2022-12-04T22:43:06.375Z,93.07
2022-12-04T22:45:32.470Z,93.07
2022-12-04T22:47:58.585Z,93.11
2022-12-04T22:50:24.700Z,93.06
2022-12-04T22:52:50.787Z,92.98
2022-12-04T22:55:16.901Z,93.22
2022-12-04T22:57:42.997Z,93.10
2022-12-04T23:00:09.083Z,93.16
2022-12-04T23:02:35.210Z,93.28
2022-12-04T23:05:01.433Z,93.35
2022-12-04T23:07:27.581Z,93.28
2022-12-04T23:09:53.698Z,93.02
2022-12-04T23:12:19.786Z,93.37
2022-12-04T23:14:45.879Z,93.34
2022-12-04T23:17:12.055Z,93.15
2022-12-04T23:19:38.216Z,93.40
2022-12-04T23:22:04.312Z,93.35
2022-12-04T23:24:30.475Z,93.37
2022-12-04T23:26:56.556Z,93.28
2022-12-04T23:29:51.583Z,93.46
2022-12-04T23:32:09.262Z,93.53
2022-12-04T23:34:35.356Z,93.44
2022-12-04T23:37:01.448Z,93.29
2022-12-04T23:39:28.052Z,93.51
2022-12-04T23:41:54.145Z,93.27
2022-12-04T23:44:20.232Z,93.50
2022-12-04T23:46:46.394Z,93.36
2022-12-04T23:49:12.541Z,93.57
2022-12-04T23:51:38.629Z,93.29
2022-12-04T23:54:04.732Z,93.55
2022-12-04T23:56:30.831Z,93.18
2022-12-04T23:58:56.926Z,93.59
